sensor_id;sensor_type;location;lat;lon;timestamp;pressure;altitude;pressure_sealevel;temperature
10058;BMP180;5068;51.286;7.518;2022-10-16T00:00:42;98893.00;;;15.30
10058;BMP180;5068;51.286;7.518;2022-10-16T00:02:16;98892.00;;;15.20
10058;BMP180;5068;51.286;7.518;2022-10-16T00:03:52;98893.00;;;15.20
10058;BMP180;5068;51.286;7.518;2022-10-16T00:05:25;98895.00;;;15.20
10058;BMP180;5068;51.286;7.518;2022-10-16T00:06:59;98886.00;;;15.10
10058;BMP180;5068;51.286;7.518;2022-10-16T00:08:33;98901.00;;;15.10
10058;BMP180;5068;51.286;7.518;2022-10-16T00:10:07;98900.00;;;15.10
10058;BMP180;5068;51.286;7.518;2022-10-16T00:11:49;98896.00;;;15.10
10058;BMP180;5068;51.286;7.518;2022-10-16T00:13:22;98897.00;;;15.10
10058;BMP180;5068;51.286;7.518;2022-10-16T00:15:06;98890.00;;;15.10
10058;BMP180;5068;51.286;7.518;2022-10-16T00:16:40;98902.00;;;15.10
10058;BMP180;5068;51.286;7.518;2022-10-16T00:18:13;98901.00;;;15.10
10058;BMP180;5068;51.286;7.518;2022-10-16T00:19:50;98901.00;;;15.10
10058;BMP180;5068;51.286;7.518;2022-10-16T00:21:37;98899.00;;;15.10
10058;BMP180;5068;51.286;7.518;2022-10-16T00:23:22;98908.00;;;15.10
10058;BMP180;5068;51.286;7.518;2022-10-16T00:24:56;98907.00;;;15.00
10058;BMP180;5068;51.286;7.518;2022-10-16T00:26:35;98900.00;;;15.10
10058;BMP180;5068;51.286;7.518;2022-10-16T00:28:11;98907.00;;;15.10
10058;BMP180;5068;51.286;7.518;2022-10-16T00:29:49;98897.00;;;15.10
10058;BMP180;5068;51.286;7.518;2022-10-16T00:31:25;98899.00;;;15.10
10058;BMP180;5068;51.286;7.518;2022-10-16T00:32:58;98907.00;;;15.10
10058;BMP180;5068;51.286;7.518;2022-10-16T00:34:33;98916.00;;;15.10
10058;BMP180;5068;51.286;7.518;2022-10-16T00:36:13;98918.00;;;15.10
10058;BMP180;5068;51.286;7.518;2022-10-16T00:37:47;98918.00;;;15.10
10058;BMP180;5068;51.286;7.518;2022-10-16T00:39:21;98911.00;;;15.10
10058;BMP180;5068;51.286;7.518;2022-10-16T00:40:58;98912.00;;;15.10
10058;BMP180;5068;51.286;7.518;2022-10-16T00:42:32;98903.00;;;15.10
10058;BMP180;5068;51.286;7.518;2022-10-16T00:44:42;98914.00;;;15.10
10058;BMP180;5068;51.286;7.518;2022-10-16T00:46:25;98912.00;;;15.10
10058;BMP180;5068;51.286;7.518;2022-10-16T00:48:00;98920.00;;;15.10
10058;BMP180;5068;51.286;7.518;2022-10-16T00:49:36;98914.00;;;15.10
10058;BMP180;5068;51.286;7.518;2022-10-16T00:51:12;98906.00;;;15.10
10058;BMP180;5068;51.286;7.518;2022-10-16T00:52:49;98911.00;;;15.10
10058;BMP180;5068;51.286;7.518;2022-10-16T00:54:29;98910.00;;;15.00
10058;BMP180;5068;51.286;7.518;2022-10-16T00:56:04;98913.00;;;15.00
10058;BMP180;5068;51.286;7.518;2022-10-16T00:57:40;98917.00;;;15.00
10058;BMP180;5068;51.286;7.518;2022-10-16T00:59:18;98922.00;;;15.00
10058;BMP180;5068;51.286;7.518;2022-10-16T01:00:57;98922.00;;;14.90
10058;BMP180;5068;51.286;7.518;2022-10-16T01:02:40;98922.00;;;14.90
10058;BMP180;5068;51.286;7.518;2022-10-16T01:04:21;98914.00;;;14.90
10058;BMP180;5068;51.286;7.518;2022-10-16T01:06:22;98926.00;;;14.90
10058;BMP180;5068;51.286;7.518;2022-10-16T01:08:09;98916.00;;;14.90
10058;BMP180;5068;51.286;7.518;2022-10-16T01:10:03;98925.00;;;14.80
10058;BMP180;5068;51.286;7.518;2022-10-16T01:11:56;98914.00;;;14.80
10058;BMP180;5068;51.286;7.518;2022-10-16T01:13:42;98925.00;;;14.70
10058;BMP180;5068;51.286;7.518;2022-10-16T01:15:29;98915.00;;;14.70
10058;BMP180;5068;51.286;7.518;2022-10-16T01:17:13;98914.00;;;14.70
10058;BMP180;5068;51.286;7.518;2022-10-16T01:19:01;98914.00;;;14.60
10058;BMP180;5068;51.286;7.518;2022-10-16T01:20:48;98906.00;;;14.60
10058;BMP180;5068;51.286;7.518;2022-10-16T01:22:39;98916.00;;;14.60
10058;BMP180;5068;51.286;7.518;2022-10-16T01:24:31;98926.00;;;14.60
10058;BMP180;5068;51.286;7.518;2022-10-16T01:26:34;98928.00;;;14.50
10058;BMP180;5068;51.286;7.518;2022-10-16T01:28:11;98926.00;;;14.50
10058;BMP180;5068;51.286;7.518;2022-10-16T01:29:54;98928.00;;;14.50
10058;BMP180;5068;51.286;7.518;2022-10-16T01:31:37;98934.00;;;14.60
10058;BMP180;5068;51.286;7.518;2022-10-16T01:33:21;98936.00;;;14.60
10058;BMP180;5068;51.286;7.518;2022-10-16T01:35:05;98938.00;;;14.60
10058;BMP180;5068;51.286;7.518;2022-10-16T01:36:47;98926.00;;;14.50
10058;BMP180;5068;51.286;7.518;2022-10-16T01:38:30;98927.00;;;14.60
10058;BMP180;5068;51.286;7.518;2022-10-16T01:40:11;98915.00;;;14.60
10058;BMP180;5068;51.286;7.518;2022-10-16T01:41:54;98931.00;;;14.60
10058;BMP180;5068;51.286;7.518;2022-10-16T01:43:38;98933.00;;;14.60
10058;BMP180;5068;51.286;7.518;2022-10-16T01:45:17;98928.00;;;14.60
10058;BMP180;5068;51.286;7.518;2022-10-16T01:46:56;98927.00;;;14.60
10058;BMP180;5068;51.286;7.518;2022-10-16T01:48:31;98919.00;;;14.60
10058;BMP180;5068;51.286;7.518;2022-10-16T01:50:09;98921.00;;;14.50
10058;BMP180;5068;51.286;7.518;2022-10-16T01:51:46;98927.00;;;14.50
10058;BMP180;5068;51.286;7.518;2022-10-16T01:53:23;98923.00;;;14.50
10058;BMP180;5068;51.286;7.518;2022-10-16T01:54:59;98933.00;;;14.50
10058;BMP180;5068;51.286;7.518;2022-10-16T01:56:36;98926.00;;;14.50
10058;BMP180;5068;51.286;7.518;2022-10-16T01:58:13;98934.00;;;14.50
10058;BMP180;5068;51.286;7.518;2022-10-16T01:59:54;98933.00;;;14.50
10058;BMP180;5068;51.286;7.518;2022-10-16T02:01:35;98935.00;;;14.50
10058;BMP180;5068;51.286;7.518;2022-10-16T02:03:17;98930.00;;;14.50
10058;BMP180;5068;51.286;7.518;2022-10-16T02:05:05;98933.00;;;14.50
10058;BMP180;5068;51.286;7.518;2022-10-16T02:06:48;98925.00;;;14.50
10058;BMP180;5068;51.286;7.518;2022-10-16T02:08:26;98930.00;;;14.50
10058;BMP180;5068;51.286;7.518;2022-10-16T02:10:01;98941.00;;;14.50
10058;BMP180;5068;51.286;7.518;2022-10-16T02:11:34;98934.00;;;14.50
10058;BMP180;5068;51.286;7.518;2022-10-16T02:13:19;98939.00;;;14.60
10058;BMP180;5068;51.286;7.518;2022-10-16T02:15:01;98936.00;;;14.60
10058;BMP180;5068;51.286;7.518;2022-10-16T02:16:39;98943.00;;;14.60
10058;BMP180;5068;51.286;7.518;2022-10-16T02:18:16;98940.00;;;14.60
10058;BMP180;5068;51.286;7.518;2022-10-16T02:19:54;98940.00;;;14.50
10058;BMP180;5068;51.286;7.518;2022-10-16T02:21:34;98946.00;;;14.50
10058;BMP180;5068;51.286;7.518;2022-10-16T02:23:23;98944.00;;;14.50
10058;BMP180;5068;51.286;7.518;2022-10-16T02:25:02;98946.00;;;14.40
10058;BMP180;5068;51.286;7.518;2022-10-16T02:26:45;98947.00;;;14.40
10058;BMP180;5068;51.286;7.518;2022-10-16T02:28:28;98933.00;;;14.40
10058;BMP180;5068;51.286;7.518;2022-10-16T02:30:11;98938.00;;;14.40
10058;BMP180;5068;51.286;7.518;2022-10-16T02:31:55;98936.00;;;14.40
10058;BMP180;5068;51.286;7.518;2022-10-16T02:33:33;98941.00;;;14.40
10058;BMP180;5068;51.286;7.518;2022-10-16T02:35:12;98933.00;;;14.40
10058;BMP180;5068;51.286;7.518;2022-10-16T02:36:50;98931.00;;;14.30
10058;BMP180;5068;51.286;7.518;2022-10-16T02:38:30;98931.00;;;14.30
10058;BMP180;5068;51.286;7.518;2022-10-16T02:40:07;98940.00;;;14.30
10058;BMP180;5068;51.286;7.518;2022-10-16T02:41:42;98940.00;;;14.30
10058;BMP180;5068;51.286;7.518;2022-10-16T02:43:16;98936.00;;;14.30
10058;BMP180;5068;51.286;7.518;2022-10-16T02:44:51;98936.00;;;14.30
10058;BMP180;5068;51.286;7.518;2022-10-16T02:46:26;98948.00;;;14.30
10058;BMP180;5068;51.286;7.518;2022-10-16T02:48:01;98943.00;;;14.30
10058;BMP180;5068;51.286;7.518;2022-10-16T02:49:36;98942.00;;;14.30
10058;BMP180;5068;51.286;7.518;2022-10-16T02:51:10;98942.00;;;14.30
10058;BMP180;5068;51.286;7.518;2022-10-16T02:52:44;98945.00;;;14.40
10058;BMP180;5068;51.286;7.518;2022-10-16T02:54:19;98942.00;;;14.40
10058;BMP180;5068;51.286;7.518;2022-10-16T02:55:55;98933.00;;;14.40
10058;BMP180;5068;51.286;7.518;2022-10-16T02:57:29;98938.00;;;14.40
10058;BMP180;5068;51.286;7.518;2022-10-16T02:59:05;98936.00;;;14.30
10058;BMP180;5068;51.286;7.518;2022-10-16T03:00:38;98940.00;;;14.30
10058;BMP180;5068;51.286;7.518;2022-10-16T03:02:13;98946.00;;;14.30
10058;BMP180;5068;51.286;7.518;2022-10-16T03:03:46;98948.00;;;14.20
10058;BMP180;5068;51.286;7.518;2022-10-16T03:05:22;98945.00;;;14.20
10058;BMP180;5068;51.286;7.518;2022-10-16T03:07:03;98942.00;;;14.20
10058;BMP180;5068;51.286;7.518;2022-10-16T03:08:35;98945.00;;;14.20
10058;BMP180;5068;51.286;7.518;2022-10-16T03:10:11;98940.00;;;14.20
10058;BMP180;5068;51.286;7.518;2022-10-16T03:11:44;98935.00;;;14.20
10058;BMP180;5068;51.286;7.518;2022-10-16T03:13:18;98933.00;;;14.10
10058;BMP180;5068;51.286;7.518;2022-10-16T03:14:54;98943.00;;;14.20
10058;BMP180;5068;51.286;7.518;2022-10-16T03:16:29;98937.00;;;14.20
10058;BMP180;5068;51.286;7.518;2022-10-16T03:18:04;98941.00;;;14.10
10058;BMP180;5068;51.286;7.518;2022-10-16T03:19:41;98942.00;;;14.10
10058;BMP180;5068;51.286;7.518;2022-10-16T03:21:22;98942.00;;;14.10
10058;BMP180;5068;51.286;7.518;2022-10-16T03:22:56;98939.00;;;14.00
10058;BMP180;5068;51.286;7.518;2022-10-16T03:24:29;98935.00;;;14.00
10058;BMP180;5068;51.286;7.518;2022-10-16T03:26:05;98934.00;;;14.00
10058;BMP180;5068;51.286;7.518;2022-10-16T03:27:41;98935.00;;;14.00
10058;BMP180;5068;51.286;7.518;2022-10-16T03:29:14;98933.00;;;14.00
10058;BMP180;5068;51.286;7.518;2022-10-16T03:30:49;98920.00;;;14.00
10058;BMP180;5068;51.286;7.518;2022-10-16T03:32:24;98917.00;;;14.00
10058;BMP180;5068;51.286;7.518;2022-10-16T03:34:03;98913.00;;;14.00
10058;BMP180;5068;51.286;7.518;2022-10-16T03:35:37;98914.00;;;14.00
10058;BMP180;5068;51.286;7.518;2022-10-16T03:37:15;98916.00;;;14.00
10058;BMP180;5068;51.286;7.518;2022-10-16T03:38:50;98909.00;;;14.00
10058;BMP180;5068;51.286;7.518;2022-10-16T03:40:23;98897.00;;;14.00
10058;BMP180;5068;51.286;7.518;2022-10-16T03:41:58;98908.00;;;14.00
10058;BMP180;5068;51.286;7.518;2022-10-16T03:43:34;98905.00;;;14.10
10058;BMP180;5068;51.286;7.518;2022-10-16T03:45:09;98912.00;;;14.10
10058;BMP180;5068;51.286;7.518;2022-10-16T03:46:46;98920.00;;;14.10
10058;BMP180;5068;51.286;7.518;2022-10-16T03:48:26;98922.00;;;14.10
10058;BMP180;5068;51.286;7.518;2022-10-16T03:50:03;98927.00;;;14.10
10058;BMP180;5068;51.286;7.518;2022-10-16T03:51:37;98928.00;;;14.00
10058;BMP180;5068;51.286;7.518;2022-10-16T03:53:10;98937.00;;;14.00
10058;BMP180;5068;51.286;7.518;2022-10-16T03:54:44;98953.00;;;14.00
10058;BMP180;5068;51.286;7.518;2022-10-16T03:56:23;98946.00;;;14.00
10058;BMP180;5068;51.286;7.518;2022-10-16T03:57:57;98933.00;;;14.00
10058;BMP180;5068;51.286;7.518;2022-10-16T03:59:30;98947.00;;;13.90
10058;BMP180;5068;51.286;7.518;2022-10-16T04:01:03;98947.00;;;13.90
10058;BMP180;5068;51.286;7.518;2022-10-16T04:02:42;98943.00;;;13.90
10058;BMP180;5068;51.286;7.518;2022-10-16T04:04:15;98941.00;;;14.00
10058;BMP180;5068;51.286;7.518;2022-10-16T04:05:52;98937.00;;;14.00
10058;BMP180;5068;51.286;7.518;2022-10-16T04:07:26;98939.00;;;14.00
10058;BMP180;5068;51.286;7.518;2022-10-16T04:09:05;98944.00;;;14.00
10058;BMP180;5068;51.286;7.518;2022-10-16T04:10:42;98938.00;;;14.00
10058;BMP180;5068;51.286;7.518;2022-10-16T04:12:15;98947.00;;;14.10
10058;BMP180;5068;51.286;7.518;2022-10-16T04:13:49;98946.00;;;14.10
10058;BMP180;5068;51.286;7.518;2022-10-16T04:15:26;98954.00;;;14.10
10058;BMP180;5068;51.286;7.518;2022-10-16T04:17:10;98962.00;;;14.10
10058;BMP180;5068;51.286;7.518;2022-10-16T04:18:45;98954.00;;;14.10
10058;BMP180;5068;51.286;7.518;2022-10-16T04:20:21;98960.00;;;14.20
10058;BMP180;5068;51.286;7.518;2022-10-16T04:21:57;98957.00;;;14.20
10058;BMP180;5068;51.286;7.518;2022-10-16T04:23:34;98968.00;;;14.20
10058;BMP180;5068;51.286;7.518;2022-10-16T04:25:10;98966.00;;;14.20
10058;BMP180;5068;51.286;7.518;2022-10-16T04:26:51;98965.00;;;14.10
10058;BMP180;5068;51.286;7.518;2022-10-16T04:28:27;98961.00;;;14.10
10058;BMP180;5068;51.286;7.518;2022-10-16T04:30:02;98956.00;;;14.20
10058;BMP180;5068;51.286;7.518;2022-10-16T04:31:48;98977.00;;;14.20
10058;BMP180;5068;51.286;7.518;2022-10-16T04:33:21;98973.00;;;14.20
10058;BMP180;5068;51.286;7.518;2022-10-16T04:34:55;98973.00;;;14.10
10058;BMP180;5068;51.286;7.518;2022-10-16T04:36:28;98977.00;;;14.10
10058;BMP180;5068;51.286;7.518;2022-10-16T04:38:04;98983.00;;;14.10
10058;BMP180;5068;51.286;7.518;2022-10-16T04:39:37;98981.00;;;14.10
10058;BMP180;5068;51.286;7.518;2022-10-16T04:41:11;98980.00;;;14.10
10058;BMP180;5068;51.286;7.518;2022-10-16T04:42:44;98988.00;;;14.10
10058;BMP180;5068;51.286;7.518;2022-10-16T04:44:22;98989.00;;;14.10
10058;BMP180;5068;51.286;7.518;2022-10-16T04:45:55;98985.00;;;14.10
10058;BMP180;5068;51.286;7.518;2022-10-16T04:47:31;98987.00;;;14.10
10058;BMP180;5068;51.286;7.518;2022-10-16T04:49:04;99001.00;;;14.00
10058;BMP180;5068;51.286;7.518;2022-10-16T04:50:38;98996.00;;;14.00
10058;BMP180;5068;51.286;7.518;2022-10-16T04:52:12;98996.00;;;14.00
10058;BMP180;5068;51.286;7.518;2022-10-16T04:53:51;98994.00;;;14.00
10058;BMP180;5068;51.286;7.518;2022-10-16T04:55:24;98990.00;;;14.00
10058;BMP180;5068;51.286;7.518;2022-10-16T04:57:02;99001.00;;;14.00
10058;BMP180;5068;51.286;7.518;2022-10-16T04:58:36;99000.00;;;14.00
10058;BMP180;5068;51.286;7.518;2022-10-16T05:00:13;98995.00;;;14.00
10058;BMP180;5068;51.286;7.518;2022-10-16T05:01:46;98980.00;;;14.00
10058;BMP180;5068;51.286;7.518;2022-10-16T05:03:30;98977.00;;;14.00
10058;BMP180;5068;51.286;7.518;2022-10-16T05:05:05;98986.00;;;14.00
10058;BMP180;5068;51.286;7.518;2022-10-16T05:06:41;98988.00;;;14.00
10058;BMP180;5068;51.286;7.518;2022-10-16T05:08:16;98987.00;;;14.00
10058;BMP180;5068;51.286;7.518;2022-10-16T05:09:50;98992.00;;;14.00
10058;BMP180;5068;51.286;7.518;2022-10-16T05:11:23;98994.00;;;14.00
10058;BMP180;5068;51.286;7.518;2022-10-16T05:13:01;98998.00;;;14.00
10058;BMP180;5068;51.286;7.518;2022-10-16T05:14:34;99001.00;;;13.90
10058;BMP180;5068;51.286;7.518;2022-10-16T05:16:08;99005.00;;;13.90
10058;BMP180;5068;51.286;7.518;2022-10-16T05:17:46;99007.00;;;13.90
10058;BMP180;5068;51.286;7.518;2022-10-16T05:19:22;99011.00;;;13.90
10058;BMP180;5068;51.286;7.518;2022-10-16T05:20:59;98993.00;;;13.80
10058;BMP180;5068;51.286;7.518;2022-10-16T05:22:33;98994.00;;;13.80
10058;BMP180;5068;51.286;7.518;2022-10-16T05:24:06;98986.00;;;13.80
10058;BMP180;5068;51.286;7.518;2022-10-16T05:25:41;98994.00;;;13.80
10058;BMP180;5068;51.286;7.518;2022-10-16T05:27:19;98996.00;;;13.80
10058;BMP180;5068;51.286;7.518;2022-10-16T05:28:51;99004.00;;;13.80
10058;BMP180;5068;51.286;7.518;2022-10-16T05:30:25;99021.00;;;13.80
10058;BMP180;5068;51.286;7.518;2022-10-16T05:32:00;99019.00;;;13.80
10058;BMP180;5068;51.286;7.518;2022-10-16T05:33:36;99027.00;;;13.80
10058;BMP180;5068;51.286;7.518;2022-10-16T05:35:11;99026.00;;;13.80
10058;BMP180;5068;51.286;7.518;2022-10-16T05:36:45;99020.00;;;13.80
10058;BMP180;5068;51.286;7.518;2022-10-16T05:38:19;99021.00;;;13.80
10058;BMP180;5068;51.286;7.518;2022-10-16T05:39:54;99019.00;;;13.80
10058;BMP180;5068;51.286;7.518;2022-10-16T05:41:30;99012.00;;;13.80
10058;BMP180;5068;51.286;7.518;2022-10-16T05:43:05;99015.00;;;13.80
10058;BMP180;5068;51.286;7.518;2022-10-16T05:44:40;99036.00;;;13.80
10058;BMP180;5068;51.286;7.518;2022-10-16T05:46:15;99037.00;;;13.80
10058;BMP180;5068;51.286;7.518;2022-10-16T05:47:48;99042.00;;;13.80
10058;BMP180;5068;51.286;7.518;2022-10-16T05:49:21;99040.00;;;13.80
10058;BMP180;5068;51.286;7.518;2022-10-16T05:51:02;99035.00;;;13.70
10058;BMP180;5068;51.286;7.518;2022-10-16T05:52:38;99053.00;;;13.80
10058;BMP180;5068;51.286;7.518;2022-10-16T05:54:17;99039.00;;;13.80
10058;BMP180;5068;51.286;7.518;2022-10-16T05:55:54;99034.00;;;13.80
10058;BMP180;5068;51.286;7.518;2022-10-16T05:57:30;99051.00;;;13.80
10058;BMP180;5068;51.286;7.518;2022-10-16T05:59:03;99050.00;;;13.80
10058;BMP180;5068;51.286;7.518;2022-10-16T06:00:40;99051.00;;;13.70
10058;BMP180;5068;51.286;7.518;2022-10-16T06:02:18;99062.00;;;13.70
10058;BMP180;5068;51.286;7.518;2022-10-16T06:03:54;99063.00;;;13.70
10058;BMP180;5068;51.286;7.518;2022-10-16T06:05:29;99060.00;;;13.70
10058;BMP180;5068;51.286;7.518;2022-10-16T06:07:03;99073.00;;;13.70
10058;BMP180;5068;51.286;7.518;2022-10-16T06:08:38;99070.00;;;13.70
10058;BMP180;5068;51.286;7.518;2022-10-16T06:10:11;99071.00;;;13.70
10058;BMP180;5068;51.286;7.518;2022-10-16T06:11:48;99073.00;;;13.70
10058;BMP180;5068;51.286;7.518;2022-10-16T06:13:22;99062.00;;;13.70
10058;BMP180;5068;51.286;7.518;2022-10-16T06:14:56;99072.00;;;13.70
10058;BMP180;5068;51.286;7.518;2022-10-16T06:16:30;99075.00;;;13.70
10058;BMP180;5068;51.286;7.518;2022-10-16T06:18:06;99084.00;;;13.70
10058;BMP180;5068;51.286;7.518;2022-10-16T06:19:39;99086.00;;;13.70
10058;BMP180;5068;51.286;7.518;2022-10-16T06:21:17;99081.00;;;13.70
10058;BMP180;5068;51.286;7.518;2022-10-16T06:22:51;99082.00;;;13.70
10058;BMP180;5068;51.286;7.518;2022-10-16T06:24:25;99086.00;;;13.70
10058;BMP180;5068;51.286;7.518;2022-10-16T06:26:05;99077.00;;;13.70
10058;BMP180;5068;51.286;7.518;2022-10-16T06:27:39;99093.00;;;13.70
10058;BMP180;5068;51.286;7.518;2022-10-16T06:29:24;99095.00;;;13.80
10058;BMP180;5068;51.286;7.518;2022-10-16T06:31:01;99105.00;;;13.80
10058;BMP180;5068;51.286;7.518;2022-10-16T06:32:39;99105.00;;;13.80
10058;BMP180;5068;51.286;7.518;2022-10-16T06:34:14;99098.00;;;13.80
10058;BMP180;5068;51.286;7.518;2022-10-16T06:35:48;99098.00;;;13.80
10058;BMP180;5068;51.286;7.518;2022-10-16T06:37:25;99096.00;;;13.90
10058;BMP180;5068;51.286;7.518;2022-10-16T06:39:04;99081.00;;;13.90
10058;BMP180;5068;51.286;7.518;2022-10-16T06:40:39;99082.00;;;13.90
10058;BMP180;5068;51.286;7.518;2022-10-16T06:42:13;99094.00;;;13.90
10058;BMP180;5068;51.286;7.518;2022-10-16T06:43:48;99101.00;;;13.90
10058;BMP180;5068;51.286;7.518;2022-10-16T06:45:26;99108.00;;;14.00
10058;BMP180;5068;51.286;7.518;2022-10-16T06:47:01;99104.00;;;14.00
10058;BMP180;5068;51.286;7.518;2022-10-16T06:48:34;99110.00;;;14.00
10058;BMP180;5068;51.286;7.518;2022-10-16T06:50:09;99114.00;;;14.00
10058;BMP180;5068;51.286;7.518;2022-10-16T06:51:48;99111.00;;;14.00
10058;BMP180;5068;51.286;7.518;2022-10-16T06:53:22;99110.00;;;14.10
10058;BMP180;5068;51.286;7.518;2022-10-16T06:54:57;99110.00;;;14.10
10058;BMP180;5068;51.286;7.518;2022-10-16T06:56:35;99113.00;;;14.10
10058;BMP180;5068;51.286;7.518;2022-10-16T06:58:13;99110.00;;;14.10
10058;BMP180;5068;51.286;7.518;2022-10-16T06:59:47;99118.00;;;14.10
10058;BMP180;5068;51.286;7.518;2022-10-16T07:01:27;99128.00;;;14.20
10058;BMP180;5068;51.286;7.518;2022-10-16T07:03:03;99124.00;;;14.20
10058;BMP180;5068;51.286;7.518;2022-10-16T07:04:40;99136.00;;;14.20
10058;BMP180;5068;51.286;7.518;2022-10-16T07:06:22;99141.00;;;14.30
10058;BMP180;5068;51.286;7.518;2022-10-16T07:07:58;99148.00;;;14.30
10058;BMP180;5068;51.286;7.518;2022-10-16T07:09:31;99144.00;;;14.40
10058;BMP180;5068;51.286;7.518;2022-10-16T07:11:08;99144.00;;;14.40
10058;BMP180;5068;51.286;7.518;2022-10-16T07:12:42;99143.00;;;14.50
10058;BMP180;5068;51.286;7.518;2022-10-16T07:14:20;99155.00;;;14.50
10058;BMP180;5068;51.286;7.518;2022-10-16T07:16:04;99147.00;;;14.60
10058;BMP180;5068;51.286;7.518;2022-10-16T07:17:42;99154.00;;;14.60
10058;BMP180;5068;51.286;7.518;2022-10-16T07:19:16;99167.00;;;14.70
10058;BMP180;5068;51.286;7.518;2022-10-16T07:20:50;99167.00;;;14.80
10058;BMP180;5068;51.286;7.518;2022-10-16T07:22:23;99172.00;;;14.80
10058;BMP180;5068;51.286;7.518;2022-10-16T07:24:04;99169.00;;;14.90
10058;BMP180;5068;51.286;7.518;2022-10-16T07:25:39;99178.00;;;14.90
10058;BMP180;5068;51.286;7.518;2022-10-16T07:27:14;99173.00;;;15.00
10058;BMP180;5068;51.286;7.518;2022-10-16T07:28:49;99188.00;;;15.10
10058;BMP180;5068;51.286;7.518;2022-10-16T07:30:22;99183.00;;;15.20
10058;BMP180;5068;51.286;7.518;2022-10-16T07:31:55;99193.00;;;15.30
10058;BMP180;5068;51.286;7.518;2022-10-16T07:33:31;99196.00;;;15.30
10058;BMP180;5068;51.286;7.518;2022-10-16T07:35:06;99198.00;;;15.40
10058;BMP180;5068;51.286;7.518;2022-10-16T07:36:48;99195.00;;;15.40
10058;BMP180;5068;51.286;7.518;2022-10-16T07:38:24;99202.00;;;15.50
10058;BMP180;5068;51.286;7.518;2022-10-16T07:40:01;99207.00;;;15.50
10058;BMP180;5068;51.286;7.518;2022-10-16T07:41:36;99197.00;;;15.60
10058;BMP180;5068;51.286;7.518;2022-10-16T07:43:14;99200.00;;;15.60
10058;BMP180;5068;51.286;7.518;2022-10-16T07:44:54;99209.00;;;15.70
10058;BMP180;5068;51.286;7.518;2022-10-16T07:46:30;99213.00;;;15.80
10058;BMP180;5068;51.286;7.518;2022-10-16T07:48:09;99212.00;;;15.80
10058;BMP180;5068;51.286;7.518;2022-10-16T07:49:50;99216.00;;;15.90
10058;BMP180;5068;51.286;7.518;2022-10-16T07:51:26;99216.00;;;15.90
10058;BMP180;5068;51.286;7.518;2022-10-16T07:53:08;99221.00;;;16.00
10058;BMP180;5068;51.286;7.518;2022-10-16T07:54:50;99213.00;;;16.10
10058;BMP180;5068;51.286;7.518;2022-10-16T07:56:31;99218.00;;;16.10
10058;BMP180;5068;51.286;7.518;2022-10-16T07:58:22;99211.00;;;16.20
10058;BMP180;5068;51.286;7.518;2022-10-16T07:59:59;99213.00;;;16.30
10058;BMP180;5068;51.286;7.518;2022-10-16T08:02:00;99218.00;;;16.30
10058;BMP180;5068;51.286;7.518;2022-10-16T08:03:41;99220.00;;;16.40
10058;BMP180;5068;51.286;7.518;2022-10-16T08:05:15;99226.00;;;16.40
10058;BMP180;5068;51.286;7.518;2022-10-16T08:07:08;99229.00;;;16.50
10058;BMP180;5068;51.286;7.518;2022-10-16T08:08:44;99234.00;;;16.50
10058;BMP180;5068;51.286;7.518;2022-10-16T08:10:24;99233.00;;;16.60
10058;BMP180;5068;51.286;7.518;2022-10-16T08:12:03;99239.00;;;16.60
10058;BMP180;5068;51.286;7.518;2022-10-16T08:13:45;99240.00;;;16.70
10058;BMP180;5068;51.286;7.518;2022-10-16T08:15:24;99257.00;;;16.70
10058;BMP180;5068;51.286;7.518;2022-10-16T08:17:01;99257.00;;;16.70
10058;BMP180;5068;51.286;7.518;2022-10-16T08:18:37;99262.00;;;16.80
10058;BMP180;5068;51.286;7.518;2022-10-16T08:20:14;99265.00;;;16.80
10058;BMP180;5068;51.286;7.518;2022-10-16T08:21:57;99262.00;;;16.80
10058;BMP180;5068;51.286;7.518;2022-10-16T08:23:32;99258.00;;;16.80
10058;BMP180;5068;51.286;7.518;2022-10-16T08:25:06;99259.00;;;16.90
10058;BMP180;5068;51.286;7.518;2022-10-16T08:26:43;99262.00;;;16.90
10058;BMP180;5068;51.286;7.518;2022-10-16T08:28:21;99255.00;;;16.90
10058;BMP180;5068;51.286;7.518;2022-10-16T08:29:57;99250.00;;;17.00
10058;BMP180;5068;51.286;7.518;2022-10-16T08:31:30;99255.00;;;17.00
10058;BMP180;5068;51.286;7.518;2022-10-16T08:33:07;99261.00;;;17.10
10058;BMP180;5068;51.286;7.518;2022-10-16T08:34:43;99268.00;;;17.10
10058;BMP180;5068;51.286;7.518;2022-10-16T08:36:24;99264.00;;;17.20
10058;BMP180;5068;51.286;7.518;2022-10-16T08:37:59;99273.00;;;17.20
10058;BMP180;5068;51.286;7.518;2022-10-16T08:39:34;99271.00;;;17.30
10058;BMP180;5068;51.286;7.518;2022-10-16T08:41:33;99274.00;;;17.30
10058;BMP180;5068;51.286;7.518;2022-10-16T08:43:33;99278.00;;;17.40
10058;BMP180;5068;51.286;7.518;2022-10-16T08:45:37;99284.00;;;17.40
10058;BMP180;5068;51.286;7.518;2022-10-16T08:47:26;99286.00;;;17.40
10058;BMP180;5068;51.286;7.518;2022-10-16T08:49:19;99287.00;;;17.50
10058;BMP180;5068;51.286;7.518;2022-10-16T08:50:57;99291.00;;;17.50
10058;BMP180;5068;51.286;7.518;2022-10-16T08:52:35;99287.00;;;17.60
10058;BMP180;5068;51.286;7.518;2022-10-16T08:54:27;99289.00;;;17.60
10058;BMP180;5068;51.286;7.518;2022-10-16T08:56:05;99289.00;;;17.70
10058;BMP180;5068;51.286;7.518;2022-10-16T08:57:38;99287.00;;;17.70
10058;BMP180;5068;51.286;7.518;2022-10-16T08:59:16;99293.00;;;17.80
10058;BMP180;5068;51.286;7.518;2022-10-16T09:00:55;99300.00;;;17.90
10058;BMP180;5068;51.286;7.518;2022-10-16T09:02:42;99298.00;;;18.00
10058;BMP180;5068;51.286;7.518;2022-10-16T09:04:58;99309.00;;;18.10
10058;BMP180;5068;51.286;7.518;2022-10-16T09:06:47;99304.00;;;18.10
10058;BMP180;5068;51.286;7.518;2022-10-16T09:08:35;99306.00;;;18.20
10058;BMP180;5068;51.286;7.518;2022-10-16T09:10:27;99299.00;;;18.30
10058;BMP180;5068;51.286;7.518;2022-10-16T09:12:12;99307.00;;;18.40
10058;BMP180;5068;51.286;7.518;2022-10-16T09:13:55;99315.00;;;18.50
10058;BMP180;5068;51.286;7.518;2022-10-16T09:15:39;99320.00;;;18.50
10058;BMP180;5068;51.286;7.518;2022-10-16T09:17:32;99326.00;;;18.60
10058;BMP180;5068;51.286;7.518;2022-10-16T09:19:17;99328.00;;;18.70
10058;BMP180;5068;51.286;7.518;2022-10-16T09:21:04;99321.00;;;18.80
10058;BMP180;5068;51.286;7.518;2022-10-16T09:22:46;99337.00;;;18.80
10058;BMP180;5068;51.286;7.518;2022-10-16T09:24:29;99334.00;;;18.90
10058;BMP180;5068;51.286;7.518;2022-10-16T09:26:09;99333.00;;;19.00
10058;BMP180;5068;51.286;7.518;2022-10-16T09:27:49;99331.00;;;19.10
10058;BMP180;5068;51.286;7.518;2022-10-16T09:29:27;99332.00;;;19.20
10058;BMP180;5068;51.286;7.518;2022-10-16T09:31:02;99331.00;;;19.30
10058;BMP180;5068;51.286;7.518;2022-10-16T09:32:44;99334.00;;;19.30
10058;BMP180;5068;51.286;7.518;2022-10-16T09:34:28;99338.00;;;19.40